createdAt,value
2018-12-19T00:00:19.862Z,7.82
2018-12-19T00:02:50.505Z,7.64
2018-12-19T00:05:21.135Z,7.62
2018-12-19T00:07:51.815Z,7.46
2018-12-19T00:10:20.525Z,7.55
2018-12-19T00:12:49.228Z,7.37
2018-12-19T00:15:17.998Z,7.32
2018-12-19T00:17:48.670Z,7.26
2018-12-19T00:20:17.435Z,7.32
2018-12-19T00:22:46.135Z,7.36
2018-12-19T00:25:14.855Z,7.07
2018-12-19T00:27:45.482Z,7.05
2018-12-19T00:30:16.158Z,7.05
2018-12-19T00:32:46.790Z,7.22
2018-12-19T00:35:17.414Z,7.12
2018-12-19T00:37:46.114Z,7.24
2018-12-19T00:40:14.842Z,7.08
2018-12-19T00:42:43.550Z,7.24
2018-12-19T00:45:12.279Z,7.39
2018-12-19T00:47:41.919Z,7.20
2018-12-19T00:50:10.694Z,7.27
2018-12-19T00:52:39.395Z,7.09
2018-12-19T00:55:08.162Z,7.17
2018-12-19T00:57:36.916Z,7.15
2018-12-19T01:00:06.651Z,6.94
2018-12-19T01:02:35.335Z,7.16
2018-12-19T01:05:04.425Z,7.07
2018-12-19T01:07:33.142Z,7.34
2018-12-19T01:10:01.904Z,7.33
2018-12-19T01:12:31.630Z,7.48
2018-12-19T01:15:00.310Z,7.42
2018-12-19T01:17:28.975Z,7.39
2018-12-19T01:19:57.756Z,7.45
2018-12-19T01:22:26.462Z,7.49
2018-12-19T01:24:55.192Z,7.60
2018-12-19T01:27:23.902Z,7.53
2018-12-19T01:29:52.636Z,7.61
2018-12-19T01:32:21.294Z,7.66
2018-12-19T01:34:50.018Z,7.69
2018-12-19T01:37:18.810Z,7.64
2018-12-19T01:39:47.518Z,7.64
2018-12-19T01:42:16.242Z,7.57
2018-12-19T01:44:44.959Z,7.76
2018-12-19T01:47:13.724Z,7.59
2018-12-19T01:49:42.435Z,7.71
2018-12-19T01:52:11.139Z,7.68
2018-12-19T01:54:39.855Z,7.60
2018-12-19T01:57:08.626Z,7.58
2018-12-19T01:59:37.300Z,7.68
2018-12-19T02:02:06.186Z,7.71
2018-12-19T02:04:34.894Z,7.62
2018-12-19T02:07:03.676Z,7.74
2018-12-19T02:09:32.366Z,7.85
2018-12-19T02:12:01.101Z,7.74
2018-12-19T02:14:29.806Z,7.67
2018-12-19T02:16:58.517Z,7.85
2018-12-19T02:19:27.223Z,7.84
2018-12-19T02:21:55.863Z,7.93
2018-12-19T02:24:24.651Z,7.81
2018-12-19T02:26:53.430Z,7.79
2018-12-19T02:29:23.063Z,7.78
2018-12-19T02:31:51.910Z,7.85
2018-12-19T02:34:20.662Z,7.66
2018-12-19T02:36:49.395Z,7.80
2018-12-19T02:39:18.006Z,7.91
2018-12-19T02:41:46.663Z,7.76
2018-12-19T02:44:15.350Z,7.67
2018-12-19T02:46:44.126Z,7.76
2018-12-19T02:49:12.840Z,7.71
2018-12-19T02:51:41.593Z,7.75
2018-12-19T02:54:10.375Z,7.82
2018-12-19T02:56:39.076Z,7.79
2018-12-19T02:59:07.828Z,7.80
2018-12-19T03:01:36.590Z,7.89
2018-12-19T03:04:05.379Z,7.95
2018-12-19T03:06:34.090Z,7.97
2018-12-19T03:09:03.799Z,8.02
2018-12-19T03:11:33.985Z,8.01
2018-12-19T03:14:02.813Z,8.04
2018-12-19T03:16:32.227Z,7.94
2018-12-19T03:19:01.978Z,7.76
2018-12-19T03:21:30.659Z,7.71
2018-12-19T03:23:59.387Z,7.71
2018-12-19T03:26:28.055Z,7.53
2018-12-19T03:28:56.862Z,7.60
2018-12-19T03:31:25.572Z,7.60
2018-12-19T03:33:54.279Z,7.64
2018-12-19T03:36:23.005Z,7.52
2018-12-19T03:38:51.781Z,7.39
2018-12-19T03:41:20.499Z,7.29
2018-12-19T03:43:49.212Z,7.23
2018-12-19T03:46:17.952Z,7.07
2018-12-19T03:48:52.085Z,6.93
2018-12-19T03:51:20.874Z,6.95
2018-12-19T03:53:49.639Z,6.91
2018-12-19T03:56:18.371Z,7.04
2018-12-19T03:58:47.118Z,6.98
2018-12-19T04:01:15.853Z,7.06
2018-12-19T04:03:44.590Z,7.02
2018-12-19T04:06:13.427Z,7.14
2018-12-19T04:08:42.126Z,7.30
2018-12-19T04:11:10.887Z,7.29
2018-12-19T04:13:39.589Z,7.31
2018-12-19T04:16:08.339Z,7.25
2018-12-19T04:18:37.146Z,7.20
2018-12-19T04:21:05.975Z,7.22
2018-12-19T04:23:34.671Z,7.15
2018-12-19T04:26:03.417Z,7.27
2018-12-19T04:28:32.139Z,7.32
2018-12-19T04:31:00.925Z,7.19
2018-12-19T04:33:29.721Z,7.30
2018-12-19T04:35:58.579Z,7.22
2018-12-19T04:38:27.479Z,7.26
2018-12-19T04:40:56.213Z,7.35
2018-12-19T04:43:24.958Z,7.26
2018-12-19T04:45:53.726Z,7.24
2018-12-19T04:48:22.459Z,7.19
2018-12-19T04:50:51.178Z,7.15
2018-12-19T04:53:19.931Z,7.33
2018-12-19T04:55:48.690Z,7.35
2018-12-19T04:58:17.443Z,7.43
2018-12-19T05:00:46.174Z,7.66
2018-12-19T05:03:14.963Z,7.83
2018-12-19T05:05:43.674Z,7.91
2018-12-19T05:08:12.461Z,7.81
2018-12-19T05:10:41.210Z,7.87
2018-12-19T05:13:09.931Z,7.87
2018-12-19T05:15:38.696Z,7.98
2018-12-19T05:18:07.423Z,7.96
2018-12-19T05:20:36.235Z,8.10
2018-12-19T05:23:05.062Z,8.25
2018-12-19T05:25:33.815Z,8.29
2018-12-19T05:28:02.552Z,8.33
2018-12-19T05:30:31.329Z,8.20
2018-12-19T05:33:00.061Z,8.27
2018-12-19T05:35:28.755Z,8.06
2018-12-19T05:37:57.529Z,8.01
2018-12-19T05:40:27.308Z,7.98
2018-12-19T05:42:55.982Z,7.88
2018-12-19T05:45:24.723Z,7.99
2018-12-19T05:47:53.467Z,7.96
2018-12-19T05:50:25.196Z,8.08
2018-12-19T05:52:53.966Z,8.10
2018-12-19T05:55:22.702Z,8.06
2018-12-19T05:57:51.394Z,8.13
2018-12-19T06:00:20.374Z,8.26
2018-12-19T06:02:49.046Z,8.30
2018-12-19T06:05:17.806Z,8.37
2018-12-19T06:07:46.483Z,8.33
2018-12-19T06:10:15.242Z,8.35
2018-12-19T06:12:44.039Z,8.47
2018-12-19T06:15:12.798Z,8.66
2018-12-19T06:17:42.067Z,8.69
2018-12-19T06:20:10.797Z,8.72
2018-12-19T06:22:39.487Z,8.75
2018-12-19T06:25:08.230Z,8.75
2018-12-19T06:27:36.990Z,8.60
2018-12-19T06:30:05.883Z,8.38
2018-12-19T06:32:34.599Z,8.33
2018-12-19T06:35:03.415Z,8.27
2018-12-19T06:37:32.144Z,8.10
2018-12-19T06:40:01.406Z,8.07
2018-12-19T06:42:30.159Z,7.94
2018-12-19T06:44:58.850Z,7.87
2018-12-19T06:47:27.643Z,7.76
2018-12-19T06:49:57.171Z,7.70
2018-12-19T06:52:25.911Z,7.89
2018-12-19T06:54:54.725Z,7.70
2018-12-19T06:57:23.520Z,7.74
2018-12-19T06:59:52.330Z,7.76
2018-12-19T07:02:21.013Z,7.75
2018-12-19T07:04:49.675Z,7.62
2018-12-19T07:07:18.463Z,7.57
2018-12-19T07:09:47.232Z,7.59
2018-12-19T07:12:15.968Z,7.61
2018-12-19T07:14:46.302Z,7.67
2018-12-19T07:17:15.202Z,7.75
2018-12-19T07:19:43.930Z,7.84
2018-12-19T07:22:12.715Z,7.83
2018-12-19T07:24:41.454Z,7.89
2018-12-19T07:27:10.293Z,7.91
2018-12-19T07:29:39.082Z,7.85
2018-12-19T07:32:07.843Z,7.99
2018-12-19T07:34:36.563Z,7.91
2018-12-19T07:37:05.243Z,7.99
2018-12-19T07:39:34.007Z,8.15
2018-12-19T07:42:02.800Z,8.19
2018-12-19T07:44:31.539Z,8.15
2018-12-19T07:47:00.396Z,8.12
2018-12-19T07:49:29.043Z,8.16
2018-12-19T07:51:57.858Z,8.27
2018-12-19T07:54:26.535Z,8.28
2018-12-19T07:56:55.327Z,8.35
2018-12-19T07:59:24.084Z,8.41
2018-12-19T08:01:53.119Z,8.37
2018-12-19T08:04:22.457Z,8.23
2018-12-19T08:06:52.429Z,8.29
2018-12-19T08:09:21.213Z,8.39
2018-12-19T08:11:49.943Z,8.37
2018-12-19T08:14:18.691Z,8.41
2018-12-19T08:16:47.387Z,8.42
2018-12-19T08:19:16.126Z,8.43
2018-12-19T08:21:44.842Z,8.45
2018-12-19T08:24:13.556Z,8.40
2018-12-19T08:26:42.336Z,8.26
2018-12-19T08:29:11.063Z,8.11
2018-12-19T08:31:39.787Z,7.96
2018-12-19T08:34:08.646Z,7.96
2018-12-19T08:36:37.598Z,7.89
2018-12-19T08:39:06.562Z,7.88
2018-12-19T08:41:36.564Z,8.02
2018-12-19T08:44:05.296Z,8.08
2018-12-19T08:46:34.026Z,8.16
2018-12-19T08:49:02.776Z,7.99
2018-12-19T08:51:31.557Z,7.87
2018-12-19T08:54:00.210Z,7.86
2018-12-19T08:56:28.979Z,7.94
2018-12-19T08:58:57.682Z,8.03
2018-12-19T09:01:26.396Z,8.04
2018-12-19T09:03:55.111Z,8.12
2018-12-19T09:06:23.886Z,8.17
2018-12-19T09:08:52.590Z,8.11
2018-12-19T09:11:21.412Z,8.25
2018-12-19T09:13:50.074Z,8.09
2018-12-19T09:16:18.758Z,8.34
2018-12-19T09:18:47.454Z,8.26
2018-12-19T09:21:16.121Z,8.34
2018-12-19T09:23:44.868Z,8.39
2018-12-19T09:26:13.688Z,8.47
2018-12-19T09:28:42.435Z,8.50
2018-12-19T09:31:11.195Z,8.54
2018-12-19T09:33:39.907Z,8.63
2018-12-19T09:36:08.751Z,8.77
2018-12-19T09:38:37.462Z,8.67
2018-12-19T09:41:12.280Z,8.62
2018-12-19T09:43:37.898Z,8.68
2018-12-19T09:46:06.654Z,8.62
2018-12-19T09:48:35.394Z,8.59
2018-12-19T09:51:04.153Z,8.68
2018-12-19T09:53:32.935Z,8.86
2018-12-19T09:56:02.611Z,8.87
2018-12-19T09:58:31.393Z,8.93
2018-12-19T10:01:01.971Z,9.08
2018-12-19T10:03:30.805Z,9.00
2018-12-19T10:05:59.641Z,8.36
2018-12-19T10:08:28.299Z,8.84
2018-12-19T10:10:56.971Z,8.84
2018-12-19T10:13:25.735Z,8.78
2018-12-19T10:15:54.482Z,8.86
2018-12-19T10:20:58.258Z,9.29
2018-12-19T10:23:27.007Z,9.34
2018-12-19T10:26:01.148Z,9.42
2018-12-19T10:28:34.370Z,9.39
2018-12-19T10:31:03.134Z,9.36
2018-12-19T10:33:31.790Z,9.40
2018-12-19T10:36:00.626Z,9.31
2018-12-19T10:38:30.246Z,9.42
2018-12-19T10:40:58.995Z,9.41
2018-12-19T10:43:27.787Z,9.30
2018-12-19T10:45:56.541Z,9.20
2018-12-19T10:48:25.360Z,9.14
2018-12-19T10:50:54.159Z,9.10
2018-12-19T10:53:22.813Z,9.15
2018-12-19T10:55:51.647Z,9.22
2018-12-19T10:58:20.422Z,9.18
2018-12-19T11:00:54.858Z,9.13
2018-12-19T11:03:23.602Z,9.23
2018-12-19T11:05:54.508Z,9.28
2018-12-19T11:08:23.066Z,9.17
2018-12-19T11:10:51.899Z,9.19
2018-12-19T11:13:20.642Z,9.18
2018-12-19T11:15:49.410Z,9.31
2018-12-19T11:18:18.151Z,9.35
2018-12-19T11:20:47.075Z,9.37
2018-12-19T11:23:15.788Z,9.39
2018-12-19T11:25:44.559Z,9.36
2018-12-19T11:28:13.470Z,9.50
2018-12-19T11:30:42.214Z,9.48
2018-12-19T11:33:10.938Z,9.57
2018-12-19T11:35:39.668Z,9.58
2018-12-19T11:38:08.435Z,9.64
2018-12-19T11:40:37.174Z,9.59
2018-12-19T11:43:05.945Z,9.57
2018-12-19T11:45:34.703Z,9.75
2018-12-19T11:48:03.454Z,9.73
2018-12-19T11:50:32.690Z,9.64
2018-12-19T11:53:01.443Z,9.59
2018-12-19T11:55:30.158Z,9.57
2018-12-19T11:57:58.915Z,9.57
2018-12-19T12:00:27.630Z,9.67
2018-12-19T12:02:56.998Z,9.74
2018-12-19T12:05:25.802Z,9.77
2018-12-19T12:07:54.559Z,9.77
2018-12-19T12:10:23.306Z,10.03
2018-12-19T12:12:52.051Z,10.44
2018-12-19T12:15:20.813Z,10.18
2018-12-19T12:17:49.519Z,10.02
2018-12-19T12:20:18.290Z,10.05
2018-12-19T12:22:47.135Z,10.02
2018-12-19T12:25:15.883Z,9.86
2018-12-19T12:27:44.623Z,9.86
2018-12-19T12:30:13.307Z,9.80
2018-12-19T12:32:42.131Z,9.71
2018-12-19T12:35:11.560Z,9.72
2018-12-19T12:37:40.347Z,9.79
2018-12-19T12:40:09.350Z,9.83
2018-12-19T12:42:38.134Z,9.85
2018-12-19T12:45:07.083Z,9.89
2018-12-19T12:47:35.969Z,9.95
2018-12-19T12:50:05.481Z,9.99
2018-12-19T12:52:34.223Z,10.00
2018-12-19T12:55:02.943Z,9.99
2018-12-19T12:57:31.687Z,10.01
2018-12-19T13:00:00.455Z,10.09
2018-12-19T13:02:29.210Z,10.02
2018-12-19T13:04:57.964Z,10.09
2018-12-19T13:07:27.660Z,10.05
2018-12-19T13:09:56.426Z,10.04
2018-12-19T13:12:25.118Z,10.12
2018-12-19T13:14:53.866Z,10.10
2018-12-19T13:17:22.611Z,10.12
2018-12-19T13:19:51.378Z,10.11
2018-12-19T13:22:20.124Z,10.03
2018-12-19T13:24:48.891Z,10.09
2018-12-19T13:27:17.618Z,10.08
2018-12-19T13:29:46.399Z,10.01
2018-12-19T13:32:15.186Z,10.04
2018-12-19T13:34:44.522Z,10.06
2018-12-19T13:37:13.217Z,10.07
2018-12-19T13:39:41.933Z,10.11
2018-12-19T13:42:10.678Z,10.21
2018-12-19T13:44:39.443Z,10.26
2018-12-19T13:47:08.151Z,10.30
2018-12-19T13:49:36.903Z,10.29
2018-12-19T13:52:06.711Z,10.34
2018-12-19T13:54:35.451Z,10.38
2018-12-19T13:57:04.275Z,10.35
2018-12-19T13:59:33.055Z,10.40
2018-12-19T14:02:01.830Z,10.37
2018-12-19T14:04:30.621Z,10.33
2018-12-19T14:07:00.055Z,10.28
2018-12-19T14:09:28.842Z,10.23
2018-12-19T14:11:57.555Z,10.25
2018-12-19T14:14:26.329Z,10.23
2018-12-19T14:16:55.189Z,10.25
2018-12-19T14:19:23.932Z,10.13
2018-12-19T14:21:52.683Z,10.04
2018-12-19T14:24:21.430Z,10.03
2018-12-19T14:26:50.190Z,10.00
2018-12-19T14:29:18.944Z,9.99
2018-12-19T14:31:47.695Z,10.03
2018-12-19T14:34:16.472Z,9.98
2018-12-19T14:36:45.254Z,10.01
2018-12-19T14:39:14.030Z,10.07
2018-12-19T14:41:42.805Z,10.05
2018-12-19T14:44:11.587Z,10.00
2018-12-19T14:46:40.315Z,9.96
2018-12-19T14:49:13.943Z,9.92
2018-12-19T14:51:40.764Z,9.91
2018-12-19T14:54:09.815Z,9.93
2018-12-19T14:56:38.595Z,10.07
2018-12-19T14:59:07.331Z,10.06
2018-12-19T15:01:36.085Z,9.99
2018-12-19T15:04:04.899Z,9.95
2018-12-19T15:06:33.594Z,9.98
2018-12-19T15:09:02.338Z,9.94
2018-12-19T15:11:31.031Z,9.97
2018-12-19T15:13:59.731Z,10.02
2018-12-19T15:16:28.502Z,10.05
2018-12-19T15:18:57.250Z,10.15
2018-12-19T15:21:25.939Z,10.25
2018-12-19T15:23:54.666Z,10.36
2018-12-19T15:26:23.479Z,10.45
2018-12-19T15:28:52.170Z,10.33
2018-12-19T15:31:20.894Z,10.32
2018-12-19T15:33:49.616Z,10.35
2018-12-19T15:36:18.789Z,10.41
2018-12-19T15:38:47.516Z,10.40
2018-12-19T15:41:16.238Z,10.31
2018-12-19T15:43:44.916Z,10.30
2018-12-19T15:46:13.678Z,10.34
2018-12-19T15:48:42.358Z,10.18
2018-12-19T15:51:11.087Z,10.10
2018-12-19T15:53:39.802Z,10.04
2018-12-19T15:56:09.554Z,9.98
2018-12-19T15:58:38.334Z,10.05
2018-12-19T16:01:07.060Z,10.10
2018-12-19T16:03:35.767Z,9.96
2018-12-19T16:06:04.571Z,9.93
2018-12-19T16:08:33.387Z,10.00
2018-12-19T16:11:02.091Z,9.97
2018-12-19T16:13:30.827Z,9.96
2018-12-19T16:15:59.642Z,9.89
2018-12-19T16:18:28.435Z,9.84
2018-12-19T16:20:57.167Z,9.82
2018-12-19T16:23:25.819Z,9.80
2018-12-19T16:25:54.590Z,9.85
2018-12-19T16:28:23.342Z,9.77
2018-12-19T16:30:52.131Z,9.71
2018-12-19T16:33:20.834Z,9.71
2018-12-19T16:35:49.648Z,9.74
2018-12-19T16:38:18.495Z,9.72
2018-12-19T16:40:47.146Z,9.67
2018-12-19T16:43:16.584Z,9.69
2018-12-19T16:45:45.415Z,9.73
2018-12-19T16:48:14.109Z,9.78
2018-12-19T16:50:42.795Z,9.65
2018-12-19T16:53:11.587Z,9.64
2018-12-19T16:55:41.399Z,9.48
2018-12-19T16:58:10.118Z,9.45
2018-12-19T17:00:38.880Z,9.35
2018-12-19T17:03:07.713Z,9.25
2018-12-19T17:05:36.452Z,9.32
2018-12-19T17:08:05.200Z,9.39
2018-12-19T17:10:33.974Z,9.30
2018-12-19T17:13:02.690Z,9.15
2018-12-19T17:15:31.417Z,9.16
2018-12-19T17:18:00.090Z,9.14
2018-12-19T17:20:28.805Z,9.24
2018-12-19T17:22:57.542Z,9.29
2018-12-19T17:25:26.262Z,9.33
2018-12-19T17:27:54.947Z,9.36
2018-12-19T17:30:23.654Z,9.40
2018-12-19T17:32:52.397Z,9.30
2018-12-19T17:35:21.198Z,9.26
2018-12-19T17:37:50.145Z,9.26
2018-12-19T17:40:18.927Z,9.17
2018-12-19T17:42:47.708Z,9.12
2018-12-19T17:45:16.450Z,9.10
2018-12-19T17:47:45.183Z,9.07
2018-12-19T17:50:13.982Z,9.01
2018-12-19T17:52:42.799Z,8.90
2018-12-19T17:55:11.546Z,9.00
2018-12-19T17:57:40.246Z,8.98
2018-12-19T18:00:11.018Z,8.98
2018-12-19T18:02:39.822Z,8.91
2018-12-19T18:05:08.562Z,8.95
2018-12-19T18:07:37.309Z,8.83
2018-12-19T18:10:06.162Z,8.79
2018-12-19T18:12:34.880Z,8.63
2018-12-19T18:15:03.783Z,8.64
2018-12-19T18:17:32.482Z,8.58
2018-12-19T18:20:01.223Z,8.66
2018-12-19T18:22:30.059Z,8.70
2018-12-19T18:24:58.811Z,8.74
2018-12-19T18:27:27.554Z,8.65
2018-12-19T18:29:56.266Z,8.72
2018-12-19T18:32:24.995Z,8.74
2018-12-19T18:34:54.282Z,8.58
2018-12-19T18:37:23.098Z,8.44
2018-12-19T18:39:51.855Z,8.46
2018-12-19T18:42:20.615Z,8.33
2018-12-19T18:44:49.322Z,8.40
2018-12-19T18:47:18.176Z,8.27
2018-12-19T18:49:46.906Z,8.32
2018-12-19T18:52:15.586Z,8.36
2018-12-19T18:54:44.306Z,8.48
2018-12-19T18:57:13.728Z,8.62
2018-12-19T18:59:42.394Z,8.70
2018-12-19T19:02:11.141Z,8.83
2018-12-19T19:04:39.868Z,8.94
2018-12-19T19:07:08.675Z,8.99
2018-12-19T19:09:38.450Z,8.93
2018-12-19T19:12:07.190Z,8.87
2018-12-19T19:14:35.919Z,8.87
2018-12-19T19:17:04.709Z,8.96
2018-12-19T19:19:33.398Z,9.03
2018-12-19T19:22:02.293Z,8.88
2018-12-19T19:24:31.084Z,8.81
2018-12-19T19:26:59.848Z,8.91
2018-12-19T19:29:28.531Z,8.91
2018-12-19T19:31:57.251Z,8.89
2018-12-19T19:34:26.040Z,8.90
2018-12-19T19:36:54.834Z,8.93
2018-12-19T19:39:23.595Z,8.98
2018-12-19T19:41:52.735Z,9.09
2018-12-19T19:44:21.495Z,9.14
2018-12-19T19:46:50.259Z,9.23
2018-12-19T19:49:19.002Z,9.37
2018-12-19T19:51:47.742Z,9.41
2018-12-19T19:54:16.579Z,9.42
2018-12-19T19:56:45.327Z,9.52
2018-12-19T19:59:14.111Z,9.60
2018-12-19T20:01:42.851Z,9.61
2018-12-19T20:04:12.306Z,9.63
2018-12-19T20:06:41.018Z,9.72
2018-12-19T20:09:09.725Z,9.70
2018-12-19T20:11:39.455Z,9.69
2018-12-19T20:14:08.282Z,9.70
2018-12-19T20:16:41.282Z,9.68
2018-12-19T20:19:10.058Z,9.67
2018-12-19T20:21:38.853Z,9.70
2018-12-19T20:24:07.557Z,9.71
2018-12-19T20:26:36.315Z,9.73
2018-12-19T20:29:05.279Z,9.65
2018-12-19T20:31:35.028Z,9.65
2018-12-19T20:34:03.891Z,9.65
2018-12-19T20:36:32.638Z,9.50
2018-12-19T20:39:01.414Z,9.45
2018-12-19T20:41:31.414Z,9.49
2018-12-19T20:44:00.094Z,9.49
2018-12-19T20:46:28.773Z,9.38
2018-12-19T20:48:57.531Z,9.28
2018-12-19T20:51:26.278Z,9.27
2018-12-19T20:53:55.038Z,9.23
2018-12-19T20:56:23.831Z,9.19
2018-12-19T20:58:52.662Z,9.21
2018-12-19T21:01:22.490Z,9.20
2018-12-19T21:03:51.259Z,9.17
2018-12-19T21:06:19.994Z,9.15
2018-12-19T21:08:48.823Z,9.17
2018-12-19T21:11:17.521Z,8.96
2018-12-19T21:13:46.915Z,8.81
2018-12-19T21:16:15.776Z,8.72
2018-12-19T21:18:51.401Z,8.60
2018-12-19T21:21:20.214Z,8.46
2018-12-19T21:23:48.862Z,8.43
2018-12-19T21:26:17.626Z,8.43
2018-12-19T21:28:46.356Z,8.48
2018-12-19T21:31:15.170Z,8.53
2018-12-19T21:33:43.891Z,8.53
2018-12-19T21:36:12.697Z,8.58
2018-12-19T21:38:41.395Z,8.63
2018-12-19T21:41:10.138Z,8.67
2018-12-19T21:43:39.620Z,8.68
2018-12-19T21:46:08.442Z,8.73
2018-12-19T21:48:37.822Z,8.77
2018-12-19T21:51:06.553Z,8.83
2018-12-19T21:53:35.334Z,8.83
2018-12-19T21:56:04.092Z,8.87
2018-12-19T21:58:32.874Z,8.88
2018-12-19T22:01:01.569Z,8.84
2018-12-19T22:03:30.315Z,8.79
2018-12-19T22:05:59.069Z,8.81
2018-12-19T22:08:27.902Z,8.68
2018-12-19T22:10:56.684Z,8.74
2018-12-19T22:13:25.489Z,8.77
2018-12-19T22:15:54.271Z,8.77
2018-12-19T22:18:28.390Z,8.81
2018-12-19T22:20:57.180Z,8.79
2018-12-19T22:23:25.853Z,8.76
2018-12-19T22:25:54.566Z,8.74
2018-12-19T22:28:23.268Z,8.68
2018-12-19T22:30:52.075Z,8.70
2018-12-19T22:33:20.962Z,8.66
2018-12-19T22:35:49.702Z,8.69
2018-12-19T22:38:18.557Z,8.69
2018-12-19T22:40:47.293Z,8.62
2018-12-19T22:43:15.966Z,8.54
2018-12-19T22:45:44.723Z,8.60
2018-12-19T22:48:13.531Z,8.50
2018-12-19T22:50:42.214Z,8.59
2018-12-19T22:53:10.978Z,8.60
2018-12-19T22:55:39.714Z,8.68
2018-12-19T22:58:08.583Z,8.65
2018-12-19T23:00:42.798Z,8.74
2018-12-19T23:03:11.526Z,8.83
2018-12-19T23:05:46.734Z,8.98
2018-12-19T23:08:15.447Z,9.06
2018-12-19T23:10:44.215Z,9.10
2018-12-19T23:13:14.328Z,9.09
2018-12-19T23:15:44.882Z,9.10
2018-12-19T23:18:24.549Z,9.15
2018-12-19T23:20:59.121Z,9.21
2018-12-19T23:23:33.449Z,9.19
2018-12-19T23:26:07.710Z,9.15
2018-12-19T23:28:38.456Z,9.11
2018-12-19T23:31:07.195Z,9.12
2018-12-19T23:33:36.348Z,9.03
2018-12-19T23:36:05.115Z,9.07
2018-12-19T23:38:33.932Z,9.18
2018-12-19T23:41:02.818Z,9.16
2018-12-19T23:43:31.634Z,9.31
2018-12-19T23:46:00.409Z,9.38
2018-12-19T23:48:29.278Z,9.43
2018-12-19T23:50:58.025Z,9.41
2018-12-19T23:53:26.897Z,9.39
2018-12-19T23:55:55.648Z,9.44
2018-12-19T23:58:24.647Z,9.55
